sensor_id;sensor_type;location;lat;lon;timestamp;temperature;humidity
51878;SHT31;37911;51.526;11.536;2022-09-21T00:01:15;8.12;82.73
51878;SHT31;37911;51.526;11.536;2022-09-21T00:04:19;8.17;82.69
51878;SHT31;37911;51.526;11.536;2022-09-21T00:07:22;8.17;82.79
51878;SHT31;37911;51.526;11.536;2022-09-21T00:10:26;8.13;83.11
51878;SHT31;37911;51.526;11.536;2022-09-21T00:13:32;8.16;82.75
51878;SHT31;37911;51.526;11.536;2022-09-21T00:16:38;8.05;82.78
51878;SHT31;37911;51.526;11.536;2022-09-21T00:19:41;8.06;82.54
51878;SHT31;37911;51.526;11.536;2022-09-21T00:22:44;8.16;82.36
51878;SHT31;37911;51.526;11.536;2022-09-21T00:25:48;8.12;81.98
51878;SHT31;37911;51.526;11.536;2022-09-21T00:28:55;8.06;82.00
51878;SHT31;37911;51.526;11.536;2022-09-21T00:31:58;7.93;82.39
51878;SHT31;37911;51.526;11.536;2022-09-21T00:35:03;7.92;82.45
51878;SHT31;37911;51.526;11.536;2022-09-21T00:38:07;7.95;82.89
51878;SHT31;37911;51.526;11.536;2022-09-21T00:41:11;7.89;83.42
51878;SHT31;37911;51.526;11.536;2022-09-21T00:44:28;7.89;83.29
51878;SHT31;37911;51.526;11.536;2022-09-21T00:47:33;7.88;82.95
51878;SHT31;37911;51.526;11.536;2022-09-21T00:50:41;7.85;83.08
51878;SHT31;37911;51.526;11.536;2022-09-21T00:53:47;7.82;83.12
51878;SHT31;37911;51.526;11.536;2022-09-21T00:56:53;7.81;82.82
51878;SHT31;37911;51.526;11.536;2022-09-21T01:00:05;7.79;82.68
51878;SHT31;37911;51.526;11.536;2022-09-21T01:03:11;7.68;83.18
51878;SHT31;37911;51.526;11.536;2022-09-21T01:06:15;7.65;83.43
51878;SHT31;37911;51.526;11.536;2022-09-21T01:09:19;7.71;83.59
51878;SHT31;37911;51.526;11.536;2022-09-21T01:12:37;7.79;83.45
51878;SHT31;37911;51.526;11.536;2022-09-21T01:15:53;7.78;83.68
51878;SHT31;37911;51.526;11.536;2022-09-21T01:19:04;7.81;83.85
51878;SHT31;37911;51.526;11.536;2022-09-21T01:22:17;7.85;83.58
51878;SHT31;37911;51.526;11.536;2022-09-21T01:25:30;7.85;83.59
51878;SHT31;37911;51.526;11.536;2022-09-21T01:28:59;7.74;83.66
51878;SHT31;37911;51.526;11.536;2022-09-21T01:32:09;7.79;83.27
51878;SHT31;37911;51.526;11.536;2022-09-21T01:35:18;7.79;83.00
51878;SHT31;37911;51.526;11.536;2022-09-21T01:38:25;7.71;82.89
51878;SHT31;37911;51.526;11.536;2022-09-21T01:41:31;7.64;82.97
51878;SHT31;37911;51.526;11.536;2022-09-21T01:44:38;7.47;83.36
51878;SHT31;37911;51.526;11.536;2022-09-21T01:47:45;7.48;83.49
51878;SHT31;37911;51.526;11.536;2022-09-21T01:50:58;7.47;83.67
51878;SHT31;37911;51.526;11.536;2022-09-21T01:54:05;7.47;83.49
51878;SHT31;37911;51.526;11.536;2022-09-21T01:57:15;7.54;83.47
51878;SHT31;37911;51.526;11.536;2022-09-21T02:00:23;7.41;83.91
51878;SHT31;37911;51.526;11.536;2022-09-21T02:03:29;7.50;83.77
51878;SHT31;37911;51.526;11.536;2022-09-21T02:06:33;7.47;83.66
51878;SHT31;37911;51.526;11.536;2022-09-21T02:09:37;7.43;83.87
51878;SHT31;37911;51.526;11.536;2022-09-21T02:12:40;7.44;83.81
51878;SHT31;37911;51.526;11.536;2022-09-21T02:15:59;7.41;83.77
51878;SHT31;37911;51.526;11.536;2022-09-21T02:19:10;7.47;83.69
51878;SHT31;37911;51.526;11.536;2022-09-21T02:22:17;7.43;83.94
51878;SHT31;37911;51.526;11.536;2022-09-21T02:25:30;7.47;84.04
51878;SHT31;37911;51.526;11.536;2022-09-21T02:28:39;7.46;84.02
51878;SHT31;37911;51.526;11.536;2022-09-21T02:31:51;7.46;83.96
51878;SHT31;37911;51.526;11.536;2022-09-21T02:35:01;7.41;84.23
51878;SHT31;37911;51.526;11.536;2022-09-21T02:38:13;7.38;84.24
51878;SHT31;37911;51.526;11.536;2022-09-21T02:41:25;7.35;84.47
51878;SHT31;37911;51.526;11.536;2022-09-21T02:44:33;7.41;84.43
51878;SHT31;37911;51.526;11.536;2022-09-21T02:47:45;7.43;84.46
51878;SHT31;37911;51.526;11.536;2022-09-21T02:50:51;7.46;83.96
51878;SHT31;37911;51.526;11.536;2022-09-21T02:53:56;7.54;83.63
51878;SHT31;37911;51.526;11.536;2022-09-21T02:57:01;7.50;83.38
51878;SHT31;37911;51.526;11.536;2022-09-21T03:00:06;7.44;83.80
51878;SHT31;37911;51.526;11.536;2022-09-21T03:03:17;7.37;84.12
51878;SHT31;37911;51.526;11.536;2022-09-21T03:06:20;7.35;84.23
51878;SHT31;37911;51.526;11.536;2022-09-21T03:09:23;7.35;84.13
51878;SHT31;37911;51.526;11.536;2022-09-21T03:12:27;7.40;84.21
51878;SHT31;37911;51.526;11.536;2022-09-21T03:15:32;7.37;84.17
51878;SHT31;37911;51.526;11.536;2022-09-21T03:18:37;7.40;84.01
51878;SHT31;37911;51.526;11.536;2022-09-21T03:21:43;7.40;83.68
51878;SHT31;37911;51.526;11.536;2022-09-21T03:24:46;7.34;83.88
51878;SHT31;37911;51.526;11.536;2022-09-21T03:27:50;7.30;84.04
51878;SHT31;37911;51.526;11.536;2022-09-21T03:30:53;7.31;83.96
51878;SHT31;37911;51.526;11.536;2022-09-21T03:33:59;7.27;84.15
51878;SHT31;37911;51.526;11.536;2022-09-21T03:37:04;7.23;84.12
51878;SHT31;37911;51.526;11.536;2022-09-21T03:40:08;7.21;84.06
51878;SHT31;37911;51.526;11.536;2022-09-21T03:43:12;7.14;84.26
51878;SHT31;37911;51.526;11.536;2022-09-21T03:46:15;7.10;84.58
51878;SHT31;37911;51.526;11.536;2022-09-21T03:49:21;7.18;84.34
51878;SHT31;37911;51.526;11.536;2022-09-21T03:52:24;7.13;84.24
51878;SHT31;37911;51.526;11.536;2022-09-21T03:55:28;7.08;84.26
51878;SHT31;37911;51.526;11.536;2022-09-21T03:58:32;7.06;84.14
51878;SHT31;37911;51.526;11.536;2022-09-21T04:01:35;7.04;84.08
51878;SHT31;37911;51.526;11.536;2022-09-21T04:04:41;7.08;83.82
51878;SHT31;37911;51.526;11.536;2022-09-21T04:07:45;7.04;83.79
51878;SHT31;37911;51.526;11.536;2022-09-21T04:10:48;6.97;83.76
51878;SHT31;37911;51.526;11.536;2022-09-21T04:13:52;6.92;84.02
51878;SHT31;37911;51.526;11.536;2022-09-21T04:16:56;6.94;84.00
51878;SHT31;37911;51.526;11.536;2022-09-21T04:20:03;6.89;84.03
51878;SHT31;37911;51.526;11.536;2022-09-21T04:23:06;6.86;83.91
51878;SHT31;37911;51.526;11.536;2022-09-21T04:26:18;6.85;83.92
51878;SHT31;37911;51.526;11.536;2022-09-21T04:29:23;6.89;84.07
51878;SHT31;37911;51.526;11.536;2022-09-21T04:32:26;6.83;84.04
51878;SHT31;37911;51.526;11.536;2022-09-21T04:35:32;6.77;83.92
51878;SHT31;37911;51.526;11.536;2022-09-21T04:38:36;6.76;84.03
51878;SHT31;37911;51.526;11.536;2022-09-21T04:41:40;6.73;84.14
51878;SHT31;37911;51.526;11.536;2022-09-21T04:44:44;6.75;84.24
51878;SHT31;37911;51.526;11.536;2022-09-21T04:47:47;6.77;84.09
51878;SHT31;37911;51.526;11.536;2022-09-21T04:50:54;6.80;84.17
51878;SHT31;37911;51.526;11.536;2022-09-21T04:53:57;6.79;84.17
51878;SHT31;37911;51.526;11.536;2022-09-21T04:57:01;6.73;83.82
51878;SHT31;37911;51.526;11.536;2022-09-21T05:00:05;6.69;83.66
51878;SHT31;37911;51.526;11.536;2022-09-21T05:03:09;6.65;83.53
51878;SHT31;37911;51.526;11.536;2022-09-21T05:06:15;6.57;83.54
51878;SHT31;37911;51.526;11.536;2022-09-21T05:09:18;6.57;83.63
51878;SHT31;37911;51.526;11.536;2022-09-21T05:12:34;6.57;83.62
51878;SHT31;37911;51.526;11.536;2022-09-21T05:15:37;6.46;83.84
51878;SHT31;37911;51.526;11.536;2022-09-21T05:18:41;6.50;83.84
51878;SHT31;37911;51.526;11.536;2022-09-21T05:21:47;6.61;84.11
51878;SHT31;37911;51.526;11.536;2022-09-21T05:24:50;6.73;84.41
51878;SHT31;37911;51.526;11.536;2022-09-21T05:27:53;6.83;84.38
51878;SHT31;37911;51.526;11.536;2022-09-21T05:30:59;7.03;84.32
51878;SHT31;37911;51.526;11.536;2022-09-21T05:34:09;7.24;84.25
51878;SHT31;37911;51.526;11.536;2022-09-21T05:37:35;7.67;83.28
51878;SHT31;37911;51.526;11.536;2022-09-21T05:40:40;8.43;80.64
51878;SHT31;37911;51.526;11.536;2022-09-21T05:43:44;8.98;78.37
51878;SHT31;37911;51.526;11.536;2022-09-21T05:46:53;9.34;77.14
51878;SHT31;37911;51.526;11.536;2022-09-21T05:50:02;9.51;76.52
51878;SHT31;37911;51.526;11.536;2022-09-21T05:53:34;9.86;75.06
51878;SHT31;37911;51.526;11.536;2022-09-21T05:56:46;10.03;74.38
51878;SHT31;37911;51.526;11.536;2022-09-21T06:00:00;10.51;72.81
51878;SHT31;37911;51.526;11.536;2022-09-21T06:03:25;11.12;70.30
51878;SHT31;37911;51.526;11.536;2022-09-21T06:06:29;11.39;69.35
51878;SHT31;37911;51.526;11.536;2022-09-21T06:09:35;11.50;68.89
51878;SHT31;37911;51.526;11.536;2022-09-21T06:12:38;11.79;68.53
51878;SHT31;37911;51.526;11.536;2022-09-21T06:15:42;12.05;67.37
51878;SHT31;37911;51.526;11.536;2022-09-21T06:18:45;12.24;67.14
51878;SHT31;37911;51.526;11.536;2022-09-21T06:21:48;12.75;65.36
51878;SHT31;37911;51.526;11.536;2022-09-21T06:24:54;12.81;65.36
51878;SHT31;37911;51.526;11.536;2022-09-21T06:28:01;12.74;65.75
51878;SHT31;37911;51.526;11.536;2022-09-21T06:31:04;12.51;67.00
51878;SHT31;37911;51.526;11.536;2022-09-21T06:34:07;12.17;68.70
51878;SHT31;37911;51.526;11.536;2022-09-21T06:37:10;12.17;68.95
51878;SHT31;37911;51.526;11.536;2022-09-21T06:40:16;12.10;69.82
51878;SHT31;37911;51.526;11.536;2022-09-21T06:43:20;12.05;70.53
51878;SHT31;37911;51.526;11.536;2022-09-21T06:46:24;12.24;70.10
51878;SHT31;37911;51.526;11.536;2022-09-21T06:49:27;12.21;70.63
51878;SHT31;37911;51.526;11.536;2022-09-21T06:52:31;12.42;70.06
51878;SHT31;37911;51.526;11.536;2022-09-21T06:55:37;12.64;70.03
51878;SHT31;37911;51.526;11.536;2022-09-21T06:58:40;12.81;69.41
51878;SHT31;37911;51.526;11.536;2022-09-21T07:01:46;13.09;68.71
51878;SHT31;37911;51.526;11.536;2022-09-21T07:04:50;13.40;67.75
51878;SHT31;37911;51.526;11.536;2022-09-21T07:07:55;13.63;67.07
51878;SHT31;37911;51.526;11.536;2022-09-21T07:11:02;13.84;65.74
51878;SHT31;37911;51.526;11.536;2022-09-21T07:14:06;14.29;65.67
51878;SHT31;37911;51.526;11.536;2022-09-21T07:17:10;14.45;63.51
51878;SHT31;37911;51.526;11.536;2022-09-21T07:20:14;14.76;62.48
51878;SHT31;37911;51.526;11.536;2022-09-21T07:23:18;15.11;61.98
51878;SHT31;37911;51.526;11.536;2022-09-21T07:26:25;15.40;61.07
51878;SHT31;37911;51.526;11.536;2022-09-21T07:29:29;15.48;61.57
51878;SHT31;37911;51.526;11.536;2022-09-21T07:32:33;15.84;60.77
51878;SHT31;37911;51.526;11.536;2022-09-21T07:35:36;16.09;59.87
51878;SHT31;37911;51.526;11.536;2022-09-21T07:38:40;16.26;58.32
51878;SHT31;37911;51.526;11.536;2022-09-21T07:41:47;16.42;57.82
51878;SHT31;37911;51.526;11.536;2022-09-21T07:44:50;16.63;57.40
51878;SHT31;37911;51.526;11.536;2022-09-21T07:47:53;16.67;56.84
51878;SHT31;37911;51.526;11.536;2022-09-21T07:51:00;17.18;55.14
51878;SHT31;37911;51.526;11.536;2022-09-21T07:54:05;17.27;55.13
51878;SHT31;37911;51.526;11.536;2022-09-21T07:57:11;17.54;54.94
51878;SHT31;37911;51.526;11.536;2022-09-21T08:00:27;17.92;52.79
51878;SHT31;37911;51.526;11.536;2022-09-21T08:03:33;17.99;52.04
51878;SHT31;37911;51.526;11.536;2022-09-21T08:06:38;18.13;50.31
51878;SHT31;37911;51.526;11.536;2022-09-21T08:09:44;18.12;52.33
51878;SHT31;37911;51.526;11.536;2022-09-21T08:12:52;18.40;49.83
51878;SHT31;37911;51.526;11.536;2022-09-21T08:15:57;18.49;50.74
51878;SHT31;37911;51.526;11.536;2022-09-21T08:19:00;18.73;51.07
51878;SHT31;37911;51.526;11.536;2022-09-21T08:22:04;18.56;48.90
51878;SHT31;37911;51.526;11.536;2022-09-21T08:25:09;19.01;50.37
51878;SHT31;37911;51.526;11.536;2022-09-21T08:28:15;19.21;49.87
51878;SHT31;37911;51.526;11.536;2022-09-21T08:31:20;19.25;48.37
51878;SHT31;37911;51.526;11.536;2022-09-21T08:34:24;19.29;47.50
51878;SHT31;37911;51.526;11.536;2022-09-21T08:37:27;19.58;47.39
51878;SHT31;37911;51.526;11.536;2022-09-21T08:40:39;19.65;47.95
51878;SHT31;37911;51.526;11.536;2022-09-21T08:43:48;19.86;47.66
51878;SHT31;37911;51.526;11.536;2022-09-21T08:46:59;19.83;47.48
51878;SHT31;37911;51.526;11.536;2022-09-21T08:50:21;20.05;45.53
51878;SHT31;37911;51.526;11.536;2022-09-21T08:53:30;20.23;44.62
51878;SHT31;37911;51.526;11.536;2022-09-21T08:56:35;20.30;45.06
51878;SHT31;37911;51.526;11.536;2022-09-21T08:59:43;20.50;45.84
51878;SHT31;37911;51.526;11.536;2022-09-21T09:03:11;20.33;44.90
51878;SHT31;37911;51.526;11.536;2022-09-21T09:06:25;20.68;43.26
51878;SHT31;37911;51.526;11.536;2022-09-21T09:09:39;20.47;45.42
51878;SHT31;37911;51.526;11.536;2022-09-21T09:12:55;20.65;44.94
51878;SHT31;37911;51.526;11.536;2022-09-21T09:16:07;20.73;44.60
51878;SHT31;37911;51.526;11.536;2022-09-21T09:19:19;20.77;43.64
51878;SHT31;37911;51.526;11.536;2022-09-21T09:22:26;20.78;44.18
51878;SHT31;37911;51.526;11.536;2022-09-21T09:25:35;21.09;41.87
51878;SHT31;37911;51.526;11.536;2022-09-21T09:28:43;21.05;43.35
51878;SHT31;37911;51.526;11.536;2022-09-21T09:31:54;21.17;41.14
51878;SHT31;37911;51.526;11.536;2022-09-21T09:35:21;21.07;43.36
51878;SHT31;37911;51.526;11.536;2022-09-21T09:38:32;21.38;42.15
51878;SHT31;37911;51.526;11.536;2022-09-21T09:42:00;21.05;41.14
51878;SHT31;37911;51.526;11.536;2022-09-21T09:45:23;20.02;42.50
51878;SHT31;37911;51.526;11.536;2022-09-21T09:48:39;20.08;43.05
51878;SHT31;37911;51.526;11.536;2022-09-21T09:51:47;19.69;43.46
51878;SHT31;37911;51.526;11.536;2022-09-21T09:54:50;18.56;44.77
51878;SHT31;37911;51.526;11.536;2022-09-21T09:57:54;18.05;44.66
51878;SHT31;37911;51.526;11.536;2022-09-21T10:00:58;18.02;46.89
51878;SHT31;37911;51.526;11.536;2022-09-21T10:04:07;18.94;45.33
51878;SHT31;37911;51.526;11.536;2022-09-21T10:07:17;19.48;44.22
51878;SHT31;37911;51.526;11.536;2022-09-21T10:10:34;19.08;44.65
51878;SHT31;37911;51.526;11.536;2022-09-21T10:13:48;19.57;43.00
51878;SHT31;37911;51.526;11.536;2022-09-21T10:16:54;19.61;42.95
51878;SHT31;37911;51.526;11.536;2022-09-21T10:20:02;18.98;43.65
51878;SHT31;37911;51.526;11.536;2022-09-21T10:23:09;18.60;44.40
51878;SHT31;37911;51.526;11.536;2022-09-21T10:26:15;19.00;43.39
51878;SHT31;37911;51.526;11.536;2022-09-21T10:29:30;20.05;43.17
51878;SHT31;37911;51.526;11.536;2022-09-21T10:32:36;20.37;41.66
51878;SHT31;37911;51.526;11.536;2022-09-21T10:35:48;20.67;41.73
51878;SHT31;37911;51.526;11.536;2022-09-21T10:38:52;20.09;41.17
51878;SHT31;37911;51.526;11.536;2022-09-21T10:41:59;19.47;41.77
51878;SHT31;37911;51.526;11.536;2022-09-21T10:45:06;19.01;44.54
51878;SHT31;37911;51.526;11.536;2022-09-21T10:48:18;18.57;44.65
51878;SHT31;37911;51.526;11.536;2022-09-21T10:51:29;18.54;45.01
51878;SHT31;37911;51.526;11.536;2022-09-21T10:54:34;18.67;45.53
51878;SHT31;37911;51.526;11.536;2022-09-21T10:57:39;18.80;45.08
51878;SHT31;37911;51.526;11.536;2022-09-21T11:00:47;18.64;45.32
51878;SHT31;37911;51.526;11.536;2022-09-21T11:03:58;18.67;45.15
51878;SHT31;37911;51.526;11.536;2022-09-21T11:07:18;19.08;43.64
51878;SHT31;37911;51.526;11.536;2022-09-21T11:10:28;19.79;42.71
51878;SHT31;37911;51.526;11.536;2022-09-21T11:13:35;20.12;41.19
51878;SHT31;37911;51.526;11.536;2022-09-21T11:16:46;20.09;42.14
51878;SHT31;37911;51.526;11.536;2022-09-21T11:19:56;20.51;41.77
51878;SHT31;37911;51.526;11.536;2022-09-21T11:23:11;19.90;42.04
51878;SHT31;37911;51.526;11.536;2022-09-21T11:26:23;19.78;42.85
51878;SHT31;37911;51.526;11.536;2022-09-21T11:29:31;19.45;43.13
51878;SHT31;37911;51.526;11.536;2022-09-21T11:32:49;19.41;42.23
51878;SHT31;37911;51.526;11.536;2022-09-21T11:36:07;19.34;42.72
51878;SHT31;37911;51.526;11.536;2022-09-21T11:39:20;19.04;44.04
51878;SHT31;37911;51.526;11.536;2022-09-21T11:42:40;18.59;42.55
51878;SHT31;37911;51.526;11.536;2022-09-21T11:45:53;18.50;42.95
51878;SHT31;37911;51.526;11.536;2022-09-21T11:49:29;19.31;42.42
51878;SHT31;37911;51.526;11.536;2022-09-21T11:52:47;19.62;41.75
51878;SHT31;37911;51.526;11.536;2022-09-21T11:56:10;20.24;42.34
51878;SHT31;37911;51.526;11.536;2022-09-21T11:59:35;20.71;42.05
51878;SHT31;37911;51.526;11.536;2022-09-21T12:03:07;21.11;39.08
51878;SHT31;37911;51.526;11.536;2022-09-21T12:06:27;21.21;35.30
51878;SHT31;37911;51.526;11.536;2022-09-21T12:09:53;21.09;36.74
51878;SHT31;37911;51.526;11.536;2022-09-21T12:13:06;21.53;36.30
51878;SHT31;37911;51.526;11.536;2022-09-21T12:16:15;21.67;37.93
51878;SHT31;37911;51.526;11.536;2022-09-21T12:19:40;21.94;36.43
51878;SHT31;37911;51.526;11.536;2022-09-21T12:22:52;21.39;39.03
51878;SHT31;37911;51.526;11.536;2022-09-21T12:26:00;20.63;42.87
51878;SHT31;37911;51.526;11.536;2022-09-21T12:29:13;19.86;45.11
51878;SHT31;37911;51.526;11.536;2022-09-21T12:32:23;19.49;45.77
51878;SHT31;37911;51.526;11.536;2022-09-21T12:35:33;19.11;46.84
51878;SHT31;37911;51.526;11.536;2022-09-21T12:38:42;18.36;47.97
51878;SHT31;37911;51.526;11.536;2022-09-21T12:41:50;18.19;48.41
51878;SHT31;37911;51.526;11.536;2022-09-21T12:45:03;17.88;49.13
51878;SHT31;37911;51.526;11.536;2022-09-21T12:48:21;17.61;49.76
51878;SHT31;37911;51.526;11.536;2022-09-21T12:51:32;17.50;50.11
51878;SHT31;37911;51.526;11.536;2022-09-21T12:54:42;17.57;49.68
51878;SHT31;37911;51.526;11.536;2022-09-21T12:57:54;17.60;49.46
51878;SHT31;37911;51.526;11.536;2022-09-21T13:01:12;17.48;48.38
51878;SHT31;37911;51.526;11.536;2022-09-21T13:04:35;17.37;49.51
51878;SHT31;37911;51.526;11.536;2022-09-21T13:08:08;17.34;50.29
51878;SHT31;37911;51.526;11.536;2022-09-21T13:11:13;17.71;48.61
51878;SHT31;37911;51.526;11.536;2022-09-21T13:14:25;18.42;46.62
51878;SHT31;37911;51.526;11.536;2022-09-21T13:17:37;18.90;45.08
51878;SHT31;37911;51.526;11.536;2022-09-21T13:20:43;19.25;42.85
51878;SHT31;37911;51.526;11.536;2022-09-21T13:23:54;19.41;40.85
51878;SHT31;37911;51.526;11.536;2022-09-21T13:26:58;19.49;39.92
51878;SHT31;37911;51.526;11.536;2022-09-21T13:30:30;19.89;40.91
51878;SHT31;37911;51.526;11.536;2022-09-21T13:34:16;20.12;40.30
51878;SHT31;37911;51.526;11.536;2022-09-21T13:37:26;19.82;40.22
51878;SHT31;37911;51.526;11.536;2022-09-21T13:40:33;19.86;40.78
51878;SHT31;37911;51.526;11.536;2022-09-21T13:43:45;19.99;40.43
51878;SHT31;37911;51.526;11.536;2022-09-21T13:46:52;19.93;41.06
51878;SHT31;37911;51.526;11.536;2022-09-21T13:50:00;19.68;39.28
51878;SHT31;37911;51.526;11.536;2022-09-21T13:53:07;19.47;39.65
51878;SHT31;37911;51.526;11.536;2022-09-21T13:56:17;19.12;40.10
51878;SHT31;37911;51.526;11.536;2022-09-21T13:59:23;19.00;41.76
51878;SHT31;37911;51.526;11.536;2022-09-21T14:02:31;18.83;39.95
51878;SHT31;37911;51.526;11.536;2022-09-21T14:05:41;18.97;40.84
51878;SHT31;37911;51.526;11.536;2022-09-21T14:08:49;19.07;40.98
51878;SHT31;37911;51.526;11.536;2022-09-21T14:11:55;19.38;40.38
51878;SHT31;37911;51.526;11.536;2022-09-21T14:18:36;20.29;38.39
51878;SHT31;37911;51.526;11.536;2022-09-21T14:25:27;20.64;38.18
51878;SHT31;37911;51.526;11.536;2022-09-21T14:28:34;20.60;37.99
51878;SHT31;37911;51.526;11.536;2022-09-21T14:31:39;20.73;38.08
51878;SHT31;37911;51.526;11.536;2022-09-21T14:34:45;20.74;38.02
51878;SHT31;37911;51.526;11.536;2022-09-21T14:37:54;20.84;37.70
51878;SHT31;37911;51.526;11.536;2022-09-21T14:41:03;20.91;37.87
51878;SHT31;37911;51.526;11.536;2022-09-21T14:44:16;20.63;40.43
51878;SHT31;37911;51.526;11.536;2022-09-21T14:47:38;20.37;41.78
51878;SHT31;37911;51.526;11.536;2022-09-21T14:50:47;20.29;41.70
51878;SHT31;37911;51.526;11.536;2022-09-21T14:57:43;19.59;42.77
51878;SHT31;37911;51.526;11.536;2022-09-21T15:00:47;19.52;42.39
51878;SHT31;37911;51.526;11.536;2022-09-21T15:04:02;19.12;42.12
51878;SHT31;37911;51.526;11.536;2022-09-21T15:07:23;19.08;43.22
51878;SHT31;37911;51.526;11.536;2022-09-21T15:10:50;18.88;44.07
51878;SHT31;37911;51.526;11.536;2022-09-21T15:14:23;18.90;43.80
51878;SHT31;37911;51.526;11.536;2022-09-21T15:17:29;18.60;44.07
51878;SHT31;37911;51.526;11.536;2022-09-21T15:20:34;18.56;44.76
51878;SHT31;37911;51.526;11.536;2022-09-21T15:23:39;18.74;44.69
51878;SHT31;37911;51.526;11.536;2022-09-21T15:26:42;18.60;44.87
51878;SHT31;37911;51.526;11.536;2022-09-21T15:29:51;18.59;44.59
51878;SHT31;37911;51.526;11.536;2022-09-21T15:32:56;18.59;44.92
51878;SHT31;37911;51.526;11.536;2022-09-21T15:36:01;18.46;45.13
51878;SHT31;37911;51.526;11.536;2022-09-21T15:39:20;18.37;45.73
51878;SHT31;37911;51.526;11.536;2022-09-21T15:42:23;18.22;45.42
51878;SHT31;37911;51.526;11.536;2022-09-21T15:45:32;18.02;46.29
51878;SHT31;37911;51.526;11.536;2022-09-21T15:48:38;17.86;46.64
51878;SHT31;37911;51.526;11.536;2022-09-21T15:51:42;17.77;46.29
51878;SHT31;37911;51.526;11.536;2022-09-21T15:54:48;17.67;46.71
51878;SHT31;37911;51.526;11.536;2022-09-21T15:57:55;17.54;47.19
51878;SHT31;37911;51.526;11.536;2022-09-21T16:01:07;17.38;46.96
51878;SHT31;37911;51.526;11.536;2022-09-21T16:04:15;17.34;47.45
51878;SHT31;37911;51.526;11.536;2022-09-21T16:07:29;17.32;48.13
51878;SHT31;37911;51.526;11.536;2022-09-21T16:10:38;17.30;48.33
51878;SHT31;37911;51.526;11.536;2022-09-21T16:13:44;17.26;47.71
51878;SHT31;37911;51.526;11.536;2022-09-21T16:17:19;17.24;47.92
51878;SHT31;37911;51.526;11.536;2022-09-21T16:20:24;17.20;47.90
51878;SHT31;37911;51.526;11.536;2022-09-21T16:23:39;17.17;47.98
51878;SHT31;37911;51.526;11.536;2022-09-21T16:26:54;17.11;48.01
51878;SHT31;37911;51.526;11.536;2022-09-21T16:34:02;16.76;48.86
51878;SHT31;37911;51.526;11.536;2022-09-21T16:37:22;16.53;49.45
51878;SHT31;37911;51.526;11.536;2022-09-21T16:40:27;16.42;50.95
51878;SHT31;37911;51.526;11.536;2022-09-21T16:43:32;16.35;51.54
51878;SHT31;37911;51.526;11.536;2022-09-21T16:46:43;16.23;52.56
51878;SHT31;37911;51.526;11.536;2022-09-21T16:49:49;16.13;52.46
51878;SHT31;37911;51.526;11.536;2022-09-21T16:52:55;15.95;52.78
51878;SHT31;37911;51.526;11.536;2022-09-21T16:55:59;15.85;53.66
51878;SHT31;37911;51.526;11.536;2022-09-21T16:59:08;15.65;54.27
51878;SHT31;37911;51.526;11.536;2022-09-21T17:02:12;15.53;54.92
51878;SHT31;37911;51.526;11.536;2022-09-21T17:05:18;15.37;55.62
51878;SHT31;37911;51.526;11.536;2022-09-21T17:08:21;15.29;55.52
51878;SHT31;37911;51.526;11.536;2022-09-21T17:11:26;15.11;56.33
51878;SHT31;37911;51.526;11.536;2022-09-21T17:14:34;15.06;56.80
51878;SHT31;37911;51.526;11.536;2022-09-21T17:17:38;14.96;57.32
51878;SHT31;37911;51.526;11.536;2022-09-21T17:20:44;14.85;56.78
51878;SHT31;37911;51.526;11.536;2022-09-21T17:23:48;14.77;57.58
51878;SHT31;37911;51.526;11.536;2022-09-21T17:26:52;14.66;57.85
51878;SHT31;37911;51.526;11.536;2022-09-21T17:29:56;14.54;58.78
51878;SHT31;37911;51.526;11.536;2022-09-21T17:33:02;14.41;59.12
51878;SHT31;37911;51.526;11.536;2022-09-21T17:36:11;14.29;59.21
51878;SHT31;37911;51.526;11.536;2022-09-21T17:39:15;14.04;60.12
51878;SHT31;37911;51.526;11.536;2022-09-21T17:42:21;13.80;61.44
51878;SHT31;37911;51.526;11.536;2022-09-21T17:45:29;13.61;61.77
51878;SHT31;37911;51.526;11.536;2022-09-21T17:48:37;13.44;62.35
51878;SHT31;37911;51.526;11.536;2022-09-21T17:51:47;13.37;62.94
51878;SHT31;37911;51.526;11.536;2022-09-21T17:55:05;13.29;63.37
51878;SHT31;37911;51.526;11.536;2022-09-21T17:58:36;13.26;63.56
51878;SHT31;37911;51.526;11.536;2022-09-21T18:01:43;13.18;64.18
51878;SHT31;37911;51.526;11.536;2022-09-21T18:04:47;13.06;64.64
51878;SHT31;37911;51.526;11.536;2022-09-21T18:07:55;12.98;65.23
51878;SHT31;37911;51.526;11.536;2022-09-21T18:11:17;12.85;65.84
51878;SHT31;37911;51.526;11.536;2022-09-21T18:14:29;12.74;66.44
51878;SHT31;37911;51.526;11.536;2022-09-21T18:17:41;12.71;66.55
51878;SHT31;37911;51.526;11.536;2022-09-21T18:20:55;12.78;66.23
51878;SHT31;37911;51.526;11.536;2022-09-21T18:24:14;12.85;66.05
51878;SHT31;37911;51.526;11.536;2022-09-21T18:27:19;12.68;66.49
51878;SHT31;37911;51.526;11.536;2022-09-21T18:30:23;12.51;67.04
51878;SHT31;37911;51.526;11.536;2022-09-21T18:33:36;12.38;67.48
51878;SHT31;37911;51.526;11.536;2022-09-21T18:36:49;12.25;68.25
51878;SHT31;37911;51.526;11.536;2022-09-21T18:40:02;12.17;68.41
51878;SHT31;37911;51.526;11.536;2022-09-21T18:43:21;12.05;68.87
51878;SHT31;37911;51.526;11.536;2022-09-21T18:46:33;11.98;69.16
51878;SHT31;37911;51.526;11.536;2022-09-21T18:49:47;11.90;69.35
51878;SHT31;37911;51.526;11.536;2022-09-21T18:52:56;11.83;69.45
51878;SHT31;37911;51.526;11.536;2022-09-21T18:56:06;11.77;69.51
51878;SHT31;37911;51.526;11.536;2022-09-21T18:59:12;11.71;69.67
51878;SHT31;37911;51.526;11.536;2022-09-21T19:02:17;11.65;69.85
51878;SHT31;37911;51.526;11.536;2022-09-21T19:05:21;11.53;70.37
51878;SHT31;37911;51.526;11.536;2022-09-21T19:08:33;11.52;70.43
51878;SHT31;37911;51.526;11.536;2022-09-21T19:11:47;11.49;70.52
51878;SHT31;37911;51.526;11.536;2022-09-21T19:15:01;11.35;70.83
51878;SHT31;37911;51.526;11.536;2022-09-21T19:18:14;11.19;71.47
51878;SHT31;37911;51.526;11.536;2022-09-21T19:21:27;11.16;71.80
51878;SHT31;37911;51.526;11.536;2022-09-21T19:24:39;11.02;72.22
51878;SHT31;37911;51.526;11.536;2022-09-21T19:27:53;10.91;72.53
51878;SHT31;37911;51.526;11.536;2022-09-21T19:31:03;10.92;72.61
51878;SHT31;37911;51.526;11.536;2022-09-21T19:34:13;10.79;72.76
51878;SHT31;37911;51.526;11.536;2022-09-21T19:37:17;10.68;73.10
51878;SHT31;37911;51.526;11.536;2022-09-21T19:40:23;10.64;73.29
51878;SHT31;37911;51.526;11.536;2022-09-21T19:43:33;10.64;73.17
51878;SHT31;37911;51.526;11.536;2022-09-21T19:46:46;10.61;73.28
51878;SHT31;37911;51.526;11.536;2022-09-21T19:49:53;10.55;73.40
51878;SHT31;37911;51.526;11.536;2022-09-21T19:52:59;10.48;73.48
51878;SHT31;37911;51.526;11.536;2022-09-21T19:56:15;10.50;73.40